sensor_id;sensor_type;location;lat;lon;timestamp;P1;P2;P0
72908;PMS5003;61051;62.624;17.950;2023-07-16T00:02:22;8;4;
72908;PMS5003;61051;62.624;17.950;2023-07-16T00:04:51;7;4;
72908;PMS5003;61051;62.624;17.950;2023-07-16T00:07:19;5;5;
72908;PMS5003;61051;62.624;17.950;2023-07-16T00:09:47;4;3;
72908;PMS5003;61051;62.624;17.950;2023-07-16T00:12:15;4;4;
72908;PMS5003;61051;62.624;17.950;2023-07-16T00:14:43;6;4;
72908;PMS5003;61051;62.624;17.950;2023-07-16T00:17:11;3;3;
72908;PMS5003;61051;62.624;17.950;2023-07-16T00:19:39;3;2;
72908;PMS5003;61051;62.624;17.950;2023-07-16T00:22:08;4;4;
72908;PMS5003;61051;62.624;17.950;2023-07-16T00:24:36;6;6;
72908;PMS5003;61051;62.624;17.950;2023-07-16T00:27:04;5;3;
72908;PMS5003;61051;62.624;17.950;2023-07-16T00:29:32;5;5;
72908;PMS5003;61051;62.624;17.950;2023-07-16T00:32:01;2;2;
72908;PMS5003;61051;62.624;17.950;2023-07-16T00:34:30;8;5;
72908;PMS5003;61051;62.624;17.950;2023-07-16T00:36:58;4;4;
72908;PMS5003;61051;62.624;17.950;2023-07-16T00:39:26;4;4;
72908;PMS5003;61051;62.624;17.950;2023-07-16T00:41:55;4;4;
72908;PMS5003;61051;62.624;17.950;2023-07-16T00:44:24;4;4;
72908;PMS5003;61051;62.624;17.950;2023-07-16T00:46:52;5;5;
72908;PMS5003;61051;62.624;17.950;2023-07-16T00:49:23;3;3;
72908;PMS5003;61051;62.624;17.950;2023-07-16T00:51:51;6;4;
72908;PMS5003;61051;62.624;17.950;2023-07-16T00:54:19;6;6;
72908;PMS5003;61051;62.624;17.950;2023-07-16T00:56:49;5;4;
72908;PMS5003;61051;62.624;17.950;2023-07-16T00:59:17;4;3;
72908;PMS5003;61051;62.624;17.950;2023-07-16T01:01:45;6;6;
72908;PMS5003;61051;62.624;17.950;2023-07-16T01:04:13;5;5;
72908;PMS5003;61051;62.624;17.950;2023-07-16T01:06:43;6;6;
72908;PMS5003;61051;62.624;17.950;2023-07-16T01:09:15;4;4;
72908;PMS5003;61051;62.624;17.950;2023-07-16T01:11:45;4;4;
72908;PMS5003;61051;62.624;17.950;2023-07-16T01:14:16;4;4;
72908;PMS5003;61051;62.624;17.950;2023-07-16T01:16:46;5;5;
72908;PMS5003;61051;62.624;17.950;2023-07-16T01:19:15;5;4;
72908;PMS5003;61051;62.624;17.950;2023-07-16T01:21:45;4;4;
72908;PMS5003;61051;62.624;17.950;2023-07-16T01:24:26;4;4;
72908;PMS5003;61051;62.624;17.950;2023-07-16T01:27:17;8;7;
72908;PMS5003;61051;62.624;17.950;2023-07-16T01:30:09;6;5;
72908;PMS5003;61051;62.624;17.950;2023-07-16T01:32:43;8;4;
72908;PMS5003;61051;62.624;17.950;2023-07-16T01:35:13;8;5;
72908;PMS5003;61051;62.624;17.950;2023-07-16T01:37:42;6;6;
72908;PMS5003;61051;62.624;17.950;2023-07-16T01:40:11;6;6;
72908;PMS5003;61051;62.624;17.950;2023-07-16T01:42:40;6;6;
72908;PMS5003;61051;62.624;17.950;2023-07-16T01:45:09;7;6;
72908;PMS5003;61051;62.624;17.950;2023-07-16T01:47:39;6;6;
72908;PMS5003;61051;62.624;17.950;2023-07-16T01:50:13;5;5;
72908;PMS5003;61051;62.624;17.950;2023-07-16T01:52:41;4;4;
72908;PMS5003;61051;62.624;17.950;2023-07-16T01:55:10;6;5;
72908;PMS5003;61051;62.624;17.950;2023-07-16T01:57:38;6;6;
72908;PMS5003;61051;62.624;17.950;2023-07-16T02:00:06;4;3;
72908;PMS5003;61051;62.624;17.950;2023-07-16T02:02:36;5;5;
72908;PMS5003;61051;62.624;17.950;2023-07-16T02:05:04;4;4;
72908;PMS5003;61051;62.624;17.950;2023-07-16T02:07:34;5;5;
72908;PMS5003;61051;62.624;17.950;2023-07-16T02:10:02;6;6;
72908;PMS5003;61051;62.624;17.950;2023-07-16T02:12:32;5;5;
72908;PMS5003;61051;62.624;17.950;2023-07-16T02:15:00;6;4;
72908;PMS5003;61051;62.624;17.950;2023-07-16T02:17:29;6;6;
72908;PMS5003;61051;62.624;17.950;2023-07-16T02:19:58;6;6;
72908;PMS5003;61051;62.624;17.950;2023-07-16T02:22:26;4;4;
72908;PMS5003;61051;62.624;17.950;2023-07-16T02:24:54;4;4;
72908;PMS5003;61051;62.624;17.950;2023-07-16T02:27:22;5;5;
72908;PMS5003;61051;62.624;17.950;2023-07-16T02:29:51;6;6;
72908;PMS5003;61051;62.624;17.950;2023-07-16T02:32:19;6;6;
72908;PMS5003;61051;62.624;17.950;2023-07-16T02:34:47;7;7;
72908;PMS5003;61051;62.624;17.950;2023-07-16T02:37:15;6;6;
72908;PMS5003;61051;62.624;17.950;2023-07-16T02:39:44;5;4;
72908;PMS5003;61051;62.624;17.950;2023-07-16T02:42:13;5;5;
72908;PMS5003;61051;62.624;17.950;2023-07-16T02:44:41;3;3;
72908;PMS5003;61051;62.624;17.950;2023-07-16T02:47:10;5;5;
72908;PMS5003;61051;62.624;17.950;2023-07-16T02:49:39;6;6;
72908;PMS5003;61051;62.624;17.950;2023-07-16T02:52:08;7;7;
72908;PMS5003;61051;62.624;17.950;2023-07-16T02:54:36;5;5;
72908;PMS5003;61051;62.624;17.950;2023-07-16T02:57:05;5;5;
72908;PMS5003;61051;62.624;17.950;2023-07-16T02:59:34;6;4;
72908;PMS5003;61051;62.624;17.950;2023-07-16T03:02:02;5;3;
72908;PMS5003;61051;62.624;17.950;2023-07-16T03:04:32;7;5;
72908;PMS5003;61051;62.624;17.950;2023-07-16T03:07:00;8;7;
72908;PMS5003;61051;62.624;17.950;2023-07-16T03:09:30;4;4;
72908;PMS5003;61051;62.624;17.950;2023-07-16T03:11:58;6;6;
72908;PMS5003;61051;62.624;17.950;2023-07-16T03:14:26;4;4;
72908;PMS5003;61051;62.624;17.950;2023-07-16T03:16:54;5;4;
72908;PMS5003;61051;62.624;17.950;2023-07-16T03:19:22;5;5;
72908;PMS5003;61051;62.624;17.950;2023-07-16T03:21:51;14;5;
72908;PMS5003;61051;62.624;17.950;2023-07-16T03:24:19;4;4;
72908;PMS5003;61051;62.624;17.950;2023-07-16T03:26:47;6;5;
72908;PMS5003;61051;62.624;17.950;2023-07-16T03:29:15;5;5;
72908;PMS5003;61051;62.624;17.950;2023-07-16T03:31:43;3;2;
72908;PMS5003;61051;62.624;17.950;2023-07-16T03:34:11;6;5;
72908;PMS5003;61051;62.624;17.950;2023-07-16T03:36:39;3;3;
72908;PMS5003;61051;62.624;17.950;2023-07-16T03:39:07;5;5;
72908;PMS5003;61051;62.624;17.950;2023-07-16T03:41:35;6;6;
72908;PMS5003;61051;62.624;17.950;2023-07-16T03:44:03;6;6;
72908;PMS5003;61051;62.624;17.950;2023-07-16T03:46:32;7;5;
72908;PMS5003;61051;62.624;17.950;2023-07-16T03:49:01;5;4;
72908;PMS5003;61051;62.624;17.950;2023-07-16T03:51:30;4;3;
72908;PMS5003;61051;62.624;17.950;2023-07-16T03:53:59;6;5;
72908;PMS5003;61051;62.624;17.950;2023-07-16T03:56:27;6;5;
72908;PMS5003;61051;62.624;17.950;2023-07-16T03:58:55;4;4;
72908;PMS5003;61051;62.624;17.950;2023-07-16T04:03:19;4;4;
72908;PMS5003;61051;62.624;17.950;2023-07-16T04:05:47;3;3;
72908;PMS5003;61051;62.624;17.950;2023-07-16T04:08:15;5;4;
72908;PMS5003;61051;62.624;17.950;2023-07-16T04:10:43;6;5;
72908;PMS5003;61051;62.624;17.950;2023-07-16T04:13:11;4;4;
72908;PMS5003;61051;62.624;17.950;2023-07-16T04:15:39;4;4;
72908;PMS5003;61051;62.624;17.950;2023-07-16T04:18:07;6;6;
72908;PMS5003;61051;62.624;17.950;2023-07-16T04:20:36;6;6;
72908;PMS5003;61051;62.624;17.950;2023-07-16T04:23:04;6;5;
72908;PMS5003;61051;62.624;17.950;2023-07-16T04:25:32;5;5;
72908;PMS5003;61051;62.624;17.950;2023-07-16T04:28:00;5;5;
72908;PMS5003;61051;62.624;17.950;2023-07-16T04:30:28;3;3;
72908;PMS5003;61051;62.624;17.950;2023-07-16T04:32:57;5;4;
72908;PMS5003;61051;62.624;17.950;2023-07-16T04:35:25;7;6;
72908;PMS5003;61051;62.624;17.950;2023-07-16T04:37:53;6;5;
72908;PMS5003;61051;62.624;17.950;2023-07-16T04:40:23;5;5;
72908;PMS5003;61051;62.624;17.950;2023-07-16T04:42:51;6;6;
72908;PMS5003;61051;62.624;17.950;2023-07-16T04:45:19;4;4;
72908;PMS5003;61051;62.624;17.950;2023-07-16T04:47:47;4;3;
72908;PMS5003;61051;62.624;17.950;2023-07-16T04:50:16;6;6;
72908;PMS5003;61051;62.624;17.950;2023-07-16T04:52:43;5;5;
72908;PMS5003;61051;62.624;17.950;2023-07-16T04:55:12;6;5;
72908;PMS5003;61051;62.624;17.950;2023-07-16T04:57:40;4;4;
72908;PMS5003;61051;62.624;17.950;2023-07-16T05:00:08;5;5;
72908;PMS5003;61051;62.624;17.950;2023-07-16T05:02:38;6;6;
72908;PMS5003;61051;62.624;17.950;2023-07-16T05:05:06;7;7;
72908;PMS5003;61051;62.624;17.950;2023-07-16T05:07:36;2;2;
72908;PMS5003;61051;62.624;17.950;2023-07-16T05:10:04;5;5;
72908;PMS5003;61051;62.624;17.950;2023-07-16T05:12:34;4;4;
72908;PMS5003;61051;62.624;17.950;2023-07-16T05:15:03;5;5;
72908;PMS5003;61051;62.624;17.950;2023-07-16T05:17:33;7;6;
72908;PMS5003;61051;62.624;17.950;2023-07-16T05:20:01;3;3;
72908;PMS5003;61051;62.624;17.950;2023-07-16T05:22:30;6;5;
72908;PMS5003;61051;62.624;17.950;2023-07-16T05:24:59;6;6;
72908;PMS5003;61051;62.624;17.950;2023-07-16T05:27:27;7;6;
72908;PMS5003;61051;62.624;17.950;2023-07-16T05:29:57;7;7;
72908;PMS5003;61051;62.624;17.950;2023-07-16T05:32:25;7;5;
72908;PMS5003;61051;62.624;17.950;2023-07-16T05:34:53;6;5;
72908;PMS5003;61051;62.624;17.950;2023-07-16T05:37:23;9;5;
72908;PMS5003;61051;62.624;17.950;2023-07-16T05:39:52;9;4;
72908;PMS5003;61051;62.624;17.950;2023-07-16T05:42:20;6;5;
72908;PMS5003;61051;62.624;17.950;2023-07-16T05:44:48;8;8;
72908;PMS5003;61051;62.624;17.950;2023-07-16T05:47:16;6;6;
72908;PMS5003;61051;62.624;17.950;2023-07-16T05:49:45;6;6;
72908;PMS5003;61051;62.624;17.950;2023-07-16T05:52:13;8;6;
72908;PMS5003;61051;62.624;17.950;2023-07-16T05:54:42;9;5;
72908;PMS5003;61051;62.624;17.950;2023-07-16T05:57:11;6;5;
72908;PMS5003;61051;62.624;17.950;2023-07-16T05:59:39;8;6;
72908;PMS5003;61051;62.624;17.950;2023-07-16T06:02:07;7;7;
72908;PMS5003;61051;62.624;17.950;2023-07-16T06:04:35;6;6;
72908;PMS5003;61051;62.624;17.950;2023-07-16T06:07:03;6;6;
72908;PMS5003;61051;62.624;17.950;2023-07-16T06:09:33;8;6;
72908;PMS5003;61051;62.624;17.950;2023-07-16T06:12:01;6;6;
72908;PMS5003;61051;62.624;17.950;2023-07-16T06:14:31;5;5;
72908;PMS5003;61051;62.624;17.950;2023-07-16T06:16:59;7;6;
72908;PMS5003;61051;62.624;17.950;2023-07-16T06:19:28;5;5;
72908;PMS5003;61051;62.624;17.950;2023-07-16T06:21:56;7;7;
72908;PMS5003;61051;62.624;17.950;2023-07-16T06:24:26;6;5;
72908;PMS5003;61051;62.624;17.950;2023-07-16T06:26:54;6;6;
72908;PMS5003;61051;62.624;17.950;2023-07-16T06:29:22;7;7;
72908;PMS5003;61051;62.624;17.950;2023-07-16T06:31:54;5;5;
72908;PMS5003;61051;62.624;17.950;2023-07-16T06:34:24;4;4;
72908;PMS5003;61051;62.624;17.950;2023-07-16T06:36:52;9;8;
72908;PMS5003;61051;62.624;17.950;2023-07-16T06:39:20;8;6;
72908;PMS5003;61051;62.624;17.950;2023-07-16T06:41:48;5;5;
72908;PMS5003;61051;62.624;17.950;2023-07-16T06:44:16;7;6;
72908;PMS5003;61051;62.624;17.950;2023-07-16T06:46:44;8;7;
72908;PMS5003;61051;62.624;17.950;2023-07-16T06:49:13;8;7;
72908;PMS5003;61051;62.624;17.950;2023-07-16T06:51:41;8;7;
72908;PMS5003;61051;62.624;17.950;2023-07-16T06:54:09;9;8;
72908;PMS5003;61051;62.624;17.950;2023-07-16T06:56:37;7;7;
72908;PMS5003;61051;62.624;17.950;2023-07-16T06:59:06;9;8;
72908;PMS5003;61051;62.624;17.950;2023-07-16T07:01:35;10;10;
72908;PMS5003;61051;62.624;17.950;2023-07-16T07:04:04;13;7;
72908;PMS5003;61051;62.624;17.950;2023-07-16T07:06:32;9;7;
72908;PMS5003;61051;62.624;17.950;2023-07-16T07:09:00;10;7;
72908;PMS5003;61051;62.624;17.950;2023-07-16T07:11:28;8;8;
72908;PMS5003;61051;62.624;17.950;2023-07-16T07:13:57;7;7;
72908;PMS5003;61051;62.624;17.950;2023-07-16T07:16:25;7;7;
72908;PMS5003;61051;62.624;17.950;2023-07-16T07:18:54;10;7;
72908;PMS5003;61051;62.624;17.950;2023-07-16T07:21:24;12;6;
72908;PMS5003;61051;62.624;17.950;2023-07-16T07:23:52;8;8;
72908;PMS5003;61051;62.624;17.950;2023-07-16T07:26:20;4;4;
72908;PMS5003;61051;62.624;17.950;2023-07-16T07:28:48;8;8;
72908;PMS5003;61051;62.624;17.950;2023-07-16T07:31:16;12;12;
72908;PMS5003;61051;62.624;17.950;2023-07-16T07:33:45;9;8;
72908;PMS5003;61051;62.624;17.950;2023-07-16T07:36:13;6;6;
72908;PMS5003;61051;62.624;17.950;2023-07-16T07:38:41;10;9;
72908;PMS5003;61051;62.624;17.950;2023-07-16T07:41:09;7;7;
72908;PMS5003;61051;62.624;17.950;2023-07-16T07:43:37;6;6;
72908;PMS5003;61051;62.624;17.950;2023-07-16T07:46:06;12;9;
72908;PMS5003;61051;62.624;17.950;2023-07-16T07:48:34;13;11;
72908;PMS5003;61051;62.624;17.950;2023-07-16T07:51:02;9;9;
72908;PMS5003;61051;62.624;17.950;2023-07-16T07:53:31;10;10;
72908;PMS5003;61051;62.624;17.950;2023-07-16T07:55:59;8;7;
72908;PMS5003;61051;62.624;17.950;2023-07-16T07:58:28;10;7;
72908;PMS5003;61051;62.624;17.950;2023-07-16T08:00:59;8;8;
72908;PMS5003;61051;62.624;17.950;2023-07-16T08:03:32;8;8;
72908;PMS5003;61051;62.624;17.950;2023-07-16T08:06:01;12;7;
72908;PMS5003;61051;62.624;17.950;2023-07-16T08:08:29;7;7;
72908;PMS5003;61051;62.624;17.950;2023-07-16T08:10:57;7;6;
72908;PMS5003;61051;62.624;17.950;2023-07-16T08:13:25;6;6;
72908;PMS5003;61051;62.624;17.950;2023-07-16T08:15:56;10;7;
72908;PMS5003;61051;62.624;17.950;2023-07-16T08:18:26;10;9;
72908;PMS5003;61051;62.624;17.950;2023-07-16T08:20:54;5;5;
72908;PMS5003;61051;62.624;17.950;2023-07-16T08:23:24;9;7;
72908;PMS5003;61051;62.624;17.950;2023-07-16T08:25:52;9;7;
72908;PMS5003;61051;62.624;17.950;2023-07-16T08:28:20;14;9;
72908;PMS5003;61051;62.624;17.950;2023-07-16T08:30:49;8;7;
72908;PMS5003;61051;62.624;17.950;2023-07-16T08:33:19;7;6;
72908;PMS5003;61051;62.624;17.950;2023-07-16T08:35:47;7;7;
72908;PMS5003;61051;62.624;17.950;2023-07-16T08:38:15;8;7;
72908;PMS5003;61051;62.624;17.950;2023-07-16T08:40:44;6;5;
72908;PMS5003;61051;62.624;17.950;2023-07-16T08:43:16;7;7;
72908;PMS5003;61051;62.624;17.950;2023-07-16T08:45:44;8;8;
72908;PMS5003;61051;62.624;17.950;2023-07-16T08:48:14;7;7;
72908;PMS5003;61051;62.624;17.950;2023-07-16T08:50:45;8;7;
72908;PMS5003;61051;62.624;17.950;2023-07-16T08:53:16;7;7;
72908;PMS5003;61051;62.624;17.950;2023-07-16T08:55:44;7;6;
72908;PMS5003;61051;62.624;17.950;2023-07-16T08:58:13;8;8;
72908;PMS5003;61051;62.624;17.950;2023-07-16T09:00:42;10;8;
72908;PMS5003;61051;62.624;17.950;2023-07-16T09:03:12;10;7;
72908;PMS5003;61051;62.624;17.950;2023-07-16T09:05:43;8;8;
72908;PMS5003;61051;62.624;17.950;2023-07-16T09:08:13;14;9;
72908;PMS5003;61051;62.624;17.950;2023-07-16T09:10:41;14;7;
72908;PMS5003;61051;62.624;17.950;2023-07-16T09:13:10;15;9;
72908;PMS5003;61051;62.624;17.950;2023-07-16T09:15:38;8;7;
72908;PMS5003;61051;62.624;17.950;2023-07-16T09:18:06;10;8;
72908;PMS5003;61051;62.624;17.950;2023-07-16T09:20:35;7;7;
72908;PMS5003;61051;62.624;17.950;2023-07-16T09:23:04;8;8;
72908;PMS5003;61051;62.624;17.950;2023-07-16T09:25:32;12;11;
72908;PMS5003;61051;62.624;17.950;2023-07-16T09:28:02;9;8;
72908;PMS5003;61051;62.624;17.950;2023-07-16T09:30:31;11;10;
72908;PMS5003;61051;62.624;17.950;2023-07-16T09:33:09;11;9;
72908;PMS5003;61051;62.624;17.950;2023-07-16T09:35:38;17;13;
72908;PMS5003;61051;62.624;17.950;2023-07-16T09:38:07;9;9;
72908;PMS5003;61051;62.624;17.950;2023-07-16T09:40:37;14;13;
72908;PMS5003;61051;62.624;17.950;2023-07-16T09:43:07;9;8;
72908;PMS5003;61051;62.624;17.950;2023-07-16T09:45:37;9;8;
72908;PMS5003;61051;62.624;17.950;2023-07-16T09:48:06;15;11;
72908;PMS5003;61051;62.624;17.950;2023-07-16T09:50:35;11;11;
72908;PMS5003;61051;62.624;17.950;2023-07-16T09:53:05;11;11;
72908;PMS5003;61051;62.624;17.950;2023-07-16T09:55:35;7;6;
72908;PMS5003;61051;62.624;17.950;2023-07-16T09:58:06;10;9;
72908;PMS5003;61051;62.624;17.950;2023-07-16T10:03:17;9;9;
72908;PMS5003;61051;62.624;17.950;2023-07-16T10:05:45;10;9;
72908;PMS5003;61051;62.624;17.950;2023-07-16T10:08:15;12;12;
72908;PMS5003;61051;62.624;17.950;2023-07-16T10:10:46;9;9;
72908;PMS5003;61051;62.624;17.950;2023-07-16T10:13:15;13;9;
72908;PMS5003;61051;62.624;17.950;2023-07-16T10:15:50;13;8;
72908;PMS5003;61051;62.624;17.950;2023-07-16T10:18:25;10;8;
72908;PMS5003;61051;62.624;17.950;2023-07-16T10:20:59;10;8;
72908;PMS5003;61051;62.624;17.950;2023-07-16T10:23:36;8;7;
72908;PMS5003;61051;62.624;17.950;2023-07-16T10:26:06;10;8;
72908;PMS5003;61051;62.624;17.950;2023-07-16T10:28:36;9;9;
72908;PMS5003;61051;62.624;17.950;2023-07-16T10:31:16;14;9;
72908;PMS5003;61051;62.624;17.950;2023-07-16T10:33:55;10;8;
72908;PMS5003;61051;62.624;17.950;2023-07-16T10:36:26;11;11;
72908;PMS5003;61051;62.624;17.950;2023-07-16T10:39:01;9;9;
72908;PMS5003;61051;62.624;17.950;2023-07-16T10:41:30;9;9;
72908;PMS5003;61051;62.624;17.950;2023-07-16T10:43:59;8;8;
72908;PMS5003;61051;62.624;17.950;2023-07-16T10:46:28;9;9;
72908;PMS5003;61051;62.624;17.950;2023-07-16T10:48:58;11;10;
72908;PMS5003;61051;62.624;17.950;2023-07-16T10:51:26;9;8;
72908;PMS5003;61051;62.624;17.950;2023-07-16T10:53:55;7;7;
72908;PMS5003;61051;62.624;17.950;2023-07-16T10:56:23;9;9;
72908;PMS5003;61051;62.624;17.950;2023-07-16T10:58:52;16;11;
72908;PMS5003;61051;62.624;17.950;2023-07-16T11:01:22;9;8;
72908;PMS5003;61051;62.624;17.950;2023-07-16T11:03:50;8;7;
72908;PMS5003;61051;62.624;17.950;2023-07-16T11:06:19;11;9;
72908;PMS5003;61051;62.624;17.950;2023-07-16T11:08:48;12;10;
72908;PMS5003;61051;62.624;17.950;2023-07-16T11:11:27;11;10;
72908;PMS5003;61051;62.624;17.950;2023-07-16T11:13:55;10;8;
72908;PMS5003;61051;62.624;17.950;2023-07-16T11:16:24;10;8;
72908;PMS5003;61051;62.624;17.950;2023-07-16T11:18:53;10;10;
72908;PMS5003;61051;62.624;17.950;2023-07-16T11:21:23;10;8;
72908;PMS5003;61051;62.624;17.950;2023-07-16T11:23:51;8;8;
72908;PMS5003;61051;62.624;17.950;2023-07-16T11:26:19;17;13;
72908;PMS5003;61051;62.624;17.950;2023-07-16T11:28:49;16;11;
72908;PMS5003;61051;62.624;17.950;2023-07-16T11:31:19;13;11;
72908;PMS5003;61051;62.624;17.950;2023-07-16T11:33:48;14;8;
72908;PMS5003;61051;62.624;17.950;2023-07-16T11:36:17;11;10;
72908;PMS5003;61051;62.624;17.950;2023-07-16T11:38:45;13;10;
72908;PMS5003;61051;62.624;17.950;2023-07-16T11:41:19;9;9;
72908;PMS5003;61051;62.624;17.950;2023-07-16T11:43:48;14;11;
72908;PMS5003;61051;62.624;17.950;2023-07-16T11:46:18;9;9;
72908;PMS5003;61051;62.624;17.950;2023-07-16T11:48:48;11;10;
72908;PMS5003;61051;62.624;17.950;2023-07-16T11:51:16;13;9;
72908;PMS5003;61051;62.624;17.950;2023-07-16T11:53:44;8;7;
72908;PMS5003;61051;62.624;17.950;2023-07-16T11:56:13;10;9;
72908;PMS5003;61051;62.624;17.950;2023-07-16T11:58:41;9;8;
72908;PMS5003;61051;62.624;17.950;2023-07-16T12:01:09;12;10;
72908;PMS5003;61051;62.624;17.950;2023-07-16T12:03:38;18;13;
72908;PMS5003;61051;62.624;17.950;2023-07-16T12:06:07;10;8;
72908;PMS5003;61051;62.624;17.950;2023-07-16T12:08:37;12;9;
72908;PMS5003;61051;62.624;17.950;2023-07-16T12:11:05;14;12;
72908;PMS5003;61051;62.624;17.950;2023-07-16T12:13:33;10;9;
72908;PMS5003;61051;62.624;17.950;2023-07-16T12:16:01;12;12;
72908;PMS5003;61051;62.624;17.950;2023-07-16T12:18:30;8;6;
72908;PMS5003;61051;62.624;17.950;2023-07-16T12:20:58;12;11;
72908;PMS5003;61051;62.624;17.950;2023-07-16T12:23:26;9;7;
72908;PMS5003;61051;62.624;17.950;2023-07-16T12:25:55;8;7;
72908;PMS5003;61051;62.624;17.950;2023-07-16T12:28:24;8;7;
72908;PMS5003;61051;62.624;17.950;2023-07-16T12:30:53;7;6;
72908;PMS5003;61051;62.624;17.950;2023-07-16T12:33:22;6;6;
72908;PMS5003;61051;62.624;17.950;2023-07-16T12:35:50;8;7;
72908;PMS5003;61051;62.624;17.950;2023-07-16T12:38:18;9;7;
72908;PMS5003;61051;62.624;17.950;2023-07-16T12:40:46;6;6;
72908;PMS5003;61051;62.624;17.950;2023-07-16T12:43:14;8;7;
72908;PMS5003;61051;62.624;17.950;2023-07-16T12:45:43;8;7;
72908;PMS5003;61051;62.624;17.950;2023-07-16T12:48:11;11;8;
72908;PMS5003;61051;62.624;17.950;2023-07-16T12:50:39;8;7;
72908;PMS5003;61051;62.624;17.950;2023-07-16T12:53:07;9;7;
72908;PMS5003;61051;62.624;17.950;2023-07-16T12:55:35;8;8;
72908;PMS5003;61051;62.624;17.950;2023-07-16T12:58:04;6;5;
72908;PMS5003;61051;62.624;17.950;2023-07-16T13:00:32;9;7;
72908;PMS5003;61051;62.624;17.950;2023-07-16T13:03:00;5;5;
72908;PMS5003;61051;62.624;17.950;2023-07-16T13:05:28;6;6;
72908;PMS5003;61051;62.624;17.950;2023-07-16T13:07:56;11;8;
72908;PMS5003;61051;62.624;17.950;2023-07-16T13:10:24;9;8;
72908;PMS5003;61051;62.624;17.950;2023-07-16T13:12:53;10;8;
72908;PMS5003;61051;62.624;17.950;2023-07-16T13:15:22;9;9;
72908;PMS5003;61051;62.624;17.950;2023-07-16T13:17:50;7;7;
72908;PMS5003;61051;62.624;17.950;2023-07-16T13:20:20;9;8;
72908;PMS5003;61051;62.624;17.950;2023-07-16T13:22:49;10;10;
72908;PMS5003;61051;62.624;17.950;2023-07-16T13:25:17;13;9;
72908;PMS5003;61051;62.624;17.950;2023-07-16T13:27:45;9;7;
72908;PMS5003;61051;62.624;17.950;2023-07-16T13:30:13;9;9;
72908;PMS5003;61051;62.624;17.950;2023-07-16T13:32:41;9;9;
72908;PMS5003;61051;62.624;17.950;2023-07-16T13:35:10;8;8;
72908;PMS5003;61051;62.624;17.950;2023-07-16T13:37:38;5;5;
72908;PMS5003;61051;62.624;17.950;2023-07-16T13:40:06;8;8;
72908;PMS5003;61051;62.624;17.950;2023-07-16T13:42:36;8;8;
72908;PMS5003;61051;62.624;17.950;2023-07-16T13:45:05;12;7;
72908;PMS5003;61051;62.624;17.950;2023-07-16T13:47:35;11;8;
72908;PMS5003;61051;62.624;17.950;2023-07-16T13:50:03;8;8;
72908;PMS5003;61051;62.624;17.950;2023-07-16T13:52:32;15;10;
72908;PMS5003;61051;62.624;17.950;2023-07-16T13:55:00;9;9;
72908;PMS5003;61051;62.624;17.950;2023-07-16T13:57:29;8;8;
72908;PMS5003;61051;62.624;17.950;2023-07-16T13:59:59;8;7;
72908;PMS5003;61051;62.624;17.950;2023-07-16T14:02:27;7;7;
72908;PMS5003;61051;62.624;17.950;2023-07-16T14:04:56;10;10;
72908;PMS5003;61051;62.624;17.950;2023-07-16T14:07:24;9;9;
72908;PMS5003;61051;62.624;17.950;2023-07-16T14:09:53;11;7;
72908;PMS5003;61051;62.624;17.950;2023-07-16T14:12:22;10;8;
72908;PMS5003;61051;62.624;17.950;2023-07-16T14:14:51;9;6;
72908;PMS5003;61051;62.624;17.950;2023-07-16T14:17:19;8;8;
72908;PMS5003;61051;62.624;17.950;2023-07-16T14:19:48;7;6;
72908;PMS5003;61051;62.624;17.950;2023-07-16T14:22:17;9;6;
72908;PMS5003;61051;62.624;17.950;2023-07-16T14:24:46;8;7;
72908;PMS5003;61051;62.624;17.950;2023-07-16T14:27:14;8;7;
72908;PMS5003;61051;62.624;17.950;2023-07-16T14:29:42;7;7;
72908;PMS5003;61051;62.624;17.950;2023-07-16T14:32:10;8;6;
72908;PMS5003;61051;62.624;17.950;2023-07-16T14:34:38;11;8;
72908;PMS5003;61051;62.624;17.950;2023-07-16T14:37:06;8;8;
72908;PMS5003;61051;62.624;17.950;2023-07-16T14:39:34;9;9;
72908;PMS5003;61051;62.624;17.950;2023-07-16T14:42:03;10;6;
72908;PMS5003;61051;62.624;17.950;2023-07-16T14:44:32;10;8;
72908;PMS5003;61051;62.624;17.950;2023-07-16T14:47:00;8;8;
72908;PMS5003;61051;62.624;17.950;2023-07-16T14:49:28;7;7;
72908;PMS5003;61051;62.624;17.950;2023-07-16T14:51:57;8;8;
72908;PMS5003;61051;62.624;17.950;2023-07-16T14:54:25;12;9;
72908;PMS5003;61051;62.624;17.950;2023-07-16T14:56:54;12;11;
72908;PMS5003;61051;62.624;17.950;2023-07-16T14:59:23;8;8;
72908;PMS5003;61051;62.624;17.950;2023-07-16T15:01:52;11;8;
72908;PMS5003;61051;62.624;17.950;2023-07-16T15:04:22;7;7;
72908;PMS5003;61051;62.624;17.950;2023-07-16T15:06:51;8;8;
72908;PMS5003;61051;62.624;17.950;2023-07-16T15:09:21;6;6;
72908;PMS5003;61051;62.624;17.950;2023-07-16T15:11:49;9;8;
72908;PMS5003;61051;62.624;17.950;2023-07-16T15:14:17;6;6;
72908;PMS5003;61051;62.624;17.950;2023-07-16T15:16:45;8;7;
72908;PMS5003;61051;62.624;17.950;2023-07-16T15:19:14;7;6;
72908;PMS5003;61051;62.624;17.950;2023-07-16T15:21:42;9;7;
72908;PMS5003;61051;62.624;17.950;2023-07-16T15:24:10;8;7;
72908;PMS5003;61051;62.624;17.950;2023-07-16T15:26:38;9;9;
72908;PMS5003;61051;62.624;17.950;2023-07-16T15:29:07;5;5;
72908;PMS5003;61051;62.624;17.950;2023-07-16T15:31:35;9;8;
72908;PMS5003;61051;62.624;17.950;2023-07-16T15:34:03;6;6;
72908;PMS5003;61051;62.624;17.950;2023-07-16T15:36:31;10;9;
72908;PMS5003;61051;62.624;17.950;2023-07-16T15:38:59;9;8;
72908;PMS5003;61051;62.624;17.950;2023-07-16T15:41:28;8;8;
72908;PMS5003;61051;62.624;17.950;2023-07-16T15:43:56;8;8;
72908;PMS5003;61051;62.624;17.950;2023-07-16T15:46:24;7;7;
72908;PMS5003;61051;62.624;17.950;2023-07-16T15:48:53;8;8;
72908;PMS5003;61051;62.624;17.950;2023-07-16T15:51:22;10;8;
72908;PMS5003;61051;62.624;17.950;2023-07-16T15:53:52;8;7;
72908;PMS5003;61051;62.624;17.950;2023-07-16T15:56:22;9;9;
72908;PMS5003;61051;62.624;17.950;2023-07-16T15:58:52;9;9;
72908;PMS5003;61051;62.624;17.950;2023-07-16T16:03:20;10;10;
72908;PMS5003;61051;62.624;17.950;2023-07-16T16:05:48;8;8;
72908;PMS5003;61051;62.624;17.950;2023-07-16T16:08:16;11;10;
72908;PMS5003;61051;62.624;17.950;2023-07-16T16:10:46;9;7;
72908;PMS5003;61051;62.624;17.950;2023-07-16T16:13:18;12;10;
72908;PMS5003;61051;62.624;17.950;2023-07-16T16:15:47;9;8;
72908;PMS5003;61051;62.624;17.950;2023-07-16T16:18:17;10;8;
72908;PMS5003;61051;62.624;17.950;2023-07-16T16:20:47;9;9;
72908;PMS5003;61051;62.624;17.950;2023-07-16T16:23:15;8;8;
72908;PMS5003;61051;62.624;17.950;2023-07-16T16:25:43;9;9;
72908;PMS5003;61051;62.624;17.950;2023-07-16T16:28:12;10;10;
72908;PMS5003;61051;62.624;17.950;2023-07-16T16:30:41;11;10;
72908;PMS5003;61051;62.624;17.950;2023-07-16T16:33:10;8;8;
72908;PMS5003;61051;62.624;17.950;2023-07-16T16:35:39;9;9;
72908;PMS5003;61051;62.624;17.950;2023-07-16T16:38:09;11;10;
72908;PMS5003;61051;62.624;17.950;2023-07-16T16:40:39;13;10;
72908;PMS5003;61051;62.624;17.950;2023-07-16T16:43:07;11;10;
72908;PMS5003;61051;62.624;17.950;2023-07-16T16:45:35;14;8;
72908;PMS5003;61051;62.624;17.950;2023-07-16T16:48:04;11;11;